createdAt,value
2022-10-15T00:00:20.431Z,965.96
2022-10-15T00:01:20.724Z,965.96
2022-10-15T00:02:20.952Z,965.97
2022-10-15T00:03:21.192Z,965.99
2022-10-15T00:04:21.442Z,965.97
2022-10-15T00:05:21.684Z,965.95
2022-10-15T00:06:21.932Z,965.98
2022-10-15T00:07:22.444Z,965.94
2022-10-15T00:08:22.501Z,965.89
2022-10-15T00:09:22.734Z,965.89
2022-10-15T00:10:22.992Z,965.86
2022-10-15T00:11:23.237Z,965.85
2022-10-15T00:12:23.482Z,965.84
2022-10-15T00:13:23.722Z,965.87
2022-10-15T00:14:23.966Z,965.85
2022-10-15T00:15:24.209Z,965.84
2022-10-15T00:16:24.461Z,965.89
2022-10-15T00:17:24.938Z,965.92
2022-10-15T00:18:24.926Z,965.87
2022-10-15T00:19:25.165Z,965.85
2022-10-15T00:20:25.405Z,965.87
2022-10-15T00:21:25.658Z,965.92
2022-10-15T00:22:26.212Z,965.89
2022-10-15T00:23:26.209Z,965.90
2022-10-15T00:24:26.478Z,965.85
2022-10-15T00:25:26.708Z,965.87
2022-10-15T00:26:26.959Z,965.82
2022-10-15T00:27:27.199Z,965.83
2022-10-15T00:28:31.821Z,965.81
2022-10-15T00:29:28.670Z,965.78
2022-10-15T00:30:27.983Z,965.81
2022-10-15T00:31:28.279Z,965.81
2022-10-15T00:32:28.520Z,965.80
2022-10-15T00:33:28.761Z,965.78
2022-10-15T00:34:29.019Z,965.77
2022-10-15T00:35:29.271Z,965.74
2022-10-15T00:36:29.520Z,965.73
2022-10-15T00:37:29.762Z,965.71
2022-10-15T00:38:30.013Z,965.68
2022-10-15T00:39:30.254Z,965.69
2022-10-15T00:40:30.500Z,965.64
2022-10-15T00:41:31.259Z,965.59
2022-10-15T00:42:31.044Z,965.59
2022-10-15T00:43:31.292Z,965.59
2022-10-15T00:44:31.527Z,965.60
2022-10-15T00:45:31.786Z,965.57
2022-10-15T00:46:32.027Z,965.56
2022-10-15T00:47:32.266Z,965.49
2022-10-15T00:48:32.526Z,965.46
2022-10-15T00:49:32.776Z,965.50
2022-10-15T00:50:33.016Z,965.52
2022-10-15T00:51:33.265Z,965.51
2022-10-15T00:52:33.506Z,965.46
2022-10-15T00:53:33.748Z,965.46
2022-10-15T00:54:33.995Z,965.48
2022-10-15T00:55:34.236Z,965.45
2022-10-15T00:56:34.481Z,965.47
2022-10-15T00:57:34.727Z,965.44
2022-10-15T00:58:34.970Z,965.45
2022-10-15T00:59:35.216Z,965.43
2022-10-15T01:00:35.456Z,965.44
2022-10-15T01:01:35.738Z,965.40
2022-10-15T01:02:35.970Z,965.41
2022-10-15T01:03:36.209Z,965.36
2022-10-15T01:04:36.450Z,965.36
2022-10-15T01:05:36.691Z,965.34
2022-10-15T01:06:36.939Z,965.31
2022-10-15T01:07:37.180Z,965.29
2022-10-15T01:08:37.413Z,965.29
2022-10-15T01:09:37.662Z,965.25
2022-10-15T01:10:37.902Z,965.28
2022-10-15T01:11:38.152Z,965.27
2022-10-15T01:12:38.391Z,965.28
2022-10-15T01:13:38.633Z,965.35
2022-10-15T01:14:38.883Z,965.31
2022-10-15T01:15:39.124Z,965.29
2022-10-15T01:16:39.372Z,965.32
2022-10-15T01:17:39.616Z,965.32
2022-10-15T01:18:39.854Z,965.31
2022-10-15T01:19:40.123Z,965.33
2022-10-15T01:20:40.365Z,965.27
2022-10-15T01:21:40.613Z,965.26
2022-10-15T01:22:40.857Z,965.21
2022-10-15T01:23:41.106Z,965.23
2022-10-15T01:24:41.357Z,965.23
2022-10-15T01:25:41.608Z,965.23
2022-10-15T01:26:41.857Z,965.24
2022-10-15T01:27:42.117Z,965.22
2022-10-15T01:28:42.410Z,965.23
2022-10-15T01:29:42.648Z,965.17
2022-10-15T01:30:42.898Z,965.16
2022-10-15T01:31:43.147Z,965.16
2022-10-15T01:32:43.381Z,965.22
2022-10-15T01:33:43.669Z,965.23
2022-10-15T01:34:43.911Z,965.22
2022-10-15T01:35:44.158Z,965.22
2022-10-15T01:36:44.400Z,965.21
2022-10-15T01:37:44.641Z,965.20
2022-10-15T01:38:44.892Z,965.16
2022-10-15T01:39:45.132Z,965.11
2022-10-15T01:40:45.372Z,965.12
2022-10-15T01:41:45.622Z,965.10
2022-10-15T01:42:45.872Z,965.11
2022-10-15T01:43:46.131Z,965.11
2022-10-15T01:44:46.374Z,965.16
2022-10-15T01:45:46.613Z,965.13
2022-10-15T01:46:46.873Z,965.19
2022-10-15T01:47:47.115Z,965.20
2022-10-15T01:48:47.354Z,965.19
2022-10-15T01:49:47.604Z,965.15
2022-10-15T01:50:47.844Z,965.11
2022-10-15T01:51:48.115Z,965.12
2022-10-15T01:52:48.375Z,965.02
2022-10-15T01:53:48.616Z,964.99
2022-10-15T01:54:48.856Z,965.00
2022-10-15T01:55:49.110Z,965.00
2022-10-15T01:56:49.349Z,965.02
2022-10-15T01:57:49.599Z,964.99
2022-10-15T01:58:49.837Z,965.03
2022-10-15T01:59:50.077Z,964.93
2022-10-15T02:00:50.406Z,964.97
2022-10-15T02:01:50.612Z,964.91
2022-10-15T02:02:50.868Z,964.89
2022-10-15T02:03:51.108Z,964.86
2022-10-15T02:04:51.349Z,964.82
2022-10-15T02:05:51.601Z,964.82
2022-10-15T02:06:51.857Z,964.80
2022-10-15T02:07:52.120Z,964.76
2022-10-15T02:08:52.361Z,964.80
2022-10-15T02:09:52.601Z,964.76
2022-10-15T02:10:52.853Z,964.76
2022-10-15T02:11:53.091Z,964.79
2022-10-15T02:12:53.339Z,964.74
2022-10-15T02:13:53.602Z,964.77
2022-10-15T02:14:53.842Z,964.72
2022-10-15T02:15:54.083Z,964.75
2022-10-15T02:16:54.344Z,964.71
2022-10-15T02:17:54.585Z,964.73
2022-10-15T02:18:54.835Z,964.71
2022-10-15T02:19:55.110Z,964.72
2022-10-15T02:20:55.377Z,964.67
2022-10-15T02:21:55.614Z,964.69
2022-10-15T02:22:55.864Z,964.67
2022-10-15T02:23:56.113Z,964.65
2022-10-15T02:24:56.355Z,964.69
2022-10-15T02:25:56.597Z,964.67
2022-10-15T02:26:56.864Z,964.66
2022-10-15T02:27:57.106Z,964.65
2022-10-15T02:28:57.492Z,964.61
2022-10-15T02:29:57.634Z,964.55
2022-10-15T02:30:57.907Z,964.54
2022-10-15T02:31:58.157Z,964.59
2022-10-15T02:32:58.397Z,964.57
2022-10-15T02:33:58.638Z,964.59
2022-10-15T02:34:58.891Z,964.65
2022-10-15T02:35:59.133Z,964.66
2022-10-15T02:36:59.379Z,964.61
2022-10-15T02:37:59.667Z,964.64
2022-10-15T02:38:59.907Z,964.62
2022-10-15T02:40:00.158Z,964.64
2022-10-15T02:41:00.439Z,964.59
2022-10-15T02:42:00.681Z,964.59
2022-10-15T02:43:00.930Z,964.56
2022-10-15T02:44:01.172Z,964.62
2022-10-15T02:45:01.411Z,964.69
2022-10-15T02:46:01.661Z,964.66
2022-10-15T02:47:01.912Z,964.66
2022-10-15T02:48:02.155Z,964.64
2022-10-15T02:49:02.403Z,964.66
2022-10-15T02:50:02.663Z,964.67
2022-10-15T02:51:02.903Z,964.65
2022-10-15T02:52:03.154Z,964.59
2022-10-15T02:53:03.404Z,964.63
2022-10-15T02:54:03.642Z,964.63
2022-10-15T02:55:03.885Z,964.67
2022-10-15T02:56:04.125Z,964.70
2022-10-15T02:57:04.383Z,964.72
2022-10-15T02:58:04.624Z,964.73
2022-10-15T02:59:04.866Z,964.70
2022-10-15T03:00:05.108Z,964.71
2022-10-15T03:01:05.425Z,964.70
2022-10-15T03:02:05.577Z,964.64
2022-10-15T03:03:05.825Z,964.63
2022-10-15T03:04:06.146Z,964.61
2022-10-15T03:05:06.428Z,964.61
2022-10-15T03:06:06.698Z,964.60
2022-10-15T03:07:06.954Z,964.60
2022-10-15T03:08:07.199Z,964.63
2022-10-15T03:09:07.447Z,964.59
2022-10-15T03:10:07.691Z,964.58
2022-10-15T03:11:07.930Z,964.60
2022-10-15T03:12:08.189Z,964.57
2022-10-15T03:13:08.430Z,964.55
2022-10-15T03:14:08.670Z,964.53
2022-10-15T03:15:08.917Z,964.55
2022-10-15T03:16:09.151Z,964.54
2022-10-15T03:17:09.410Z,964.48
2022-10-15T03:18:09.652Z,964.56
2022-10-15T03:19:09.930Z,964.52
2022-10-15T03:20:10.162Z,964.53
2022-10-15T03:21:10.418Z,964.57
2022-10-15T03:22:10.653Z,964.55
2022-10-15T03:23:10.903Z,964.52
2022-10-15T03:24:11.144Z,964.54
2022-10-15T03:25:11.386Z,964.48
2022-10-15T03:26:11.625Z,964.55
2022-10-15T03:27:11.875Z,964.51
2022-10-15T03:28:12.125Z,964.52
2022-10-15T03:29:12.366Z,964.46
2022-10-15T03:30:12.610Z,964.45
2022-10-15T03:31:12.856Z,964.48
2022-10-15T03:32:13.105Z,964.44
2022-10-15T03:33:13.371Z,964.46
2022-10-15T03:34:13.586Z,964.43
2022-10-15T03:35:13.845Z,964.46
2022-10-15T03:36:14.080Z,964.41
2022-10-15T03:37:14.331Z,964.43
2022-10-15T03:38:14.569Z,964.42
2022-10-15T03:39:14.838Z,964.38
2022-10-15T03:40:15.078Z,964.40
2022-10-15T03:41:15.323Z,964.35
2022-10-15T03:42:15.569Z,964.37
2022-10-15T03:43:15.812Z,964.34
2022-10-15T03:44:16.061Z,964.38
2022-10-15T03:45:16.301Z,964.39
2022-10-15T03:46:16.554Z,964.40
2022-10-15T03:47:16.805Z,964.41
2022-10-15T03:48:17.041Z,964.42
2022-10-15T03:49:17.281Z,964.41
2022-10-15T03:50:17.521Z,964.49
2022-10-15T03:51:22.006Z,964.43
2022-10-15T03:52:19.002Z,964.49
2022-10-15T03:53:18.302Z,964.54
2022-10-15T03:54:18.543Z,964.51
2022-10-15T03:55:18.784Z,964.52
2022-10-15T03:56:19.023Z,964.51
2022-10-15T03:57:19.274Z,964.52
2022-10-15T03:58:19.564Z,964.53
2022-10-15T03:59:19.824Z,964.59
2022-10-15T04:00:20.064Z,964.59
2022-10-15T04:01:20.381Z,964.55
2022-10-15T04:02:20.944Z,964.57
2022-10-15T04:03:20.886Z,964.54
2022-10-15T04:04:21.128Z,964.53
2022-10-15T04:05:21.368Z,964.48
2022-10-15T04:06:21.607Z,964.52
2022-10-15T04:07:21.866Z,964.51
2022-10-15T04:08:22.118Z,964.44
2022-10-15T04:09:22.390Z,964.44
2022-10-15T04:10:22.639Z,964.43
2022-10-15T04:11:22.879Z,964.43
2022-10-15T04:12:23.329Z,964.41
2022-10-15T04:13:23.378Z,964.42
2022-10-15T04:14:23.626Z,964.41
2022-10-15T04:15:23.949Z,964.40
2022-10-15T04:16:24.149Z,964.33
2022-10-15T04:17:24.419Z,964.34
2022-10-15T04:18:24.660Z,964.35
2022-10-15T04:19:24.904Z,964.40
2022-10-15T04:20:25.141Z,964.42
2022-10-15T04:21:25.391Z,964.39
2022-10-15T04:22:25.894Z,964.42
2022-10-15T04:23:25.963Z,964.43
2022-10-15T04:24:26.202Z,964.50
2022-10-15T04:25:26.454Z,964.48
2022-10-15T04:26:26.683Z,964.55
2022-10-15T04:27:26.932Z,964.55
2022-10-15T04:28:27.221Z,964.57
2022-10-15T04:29:27.454Z,964.56
2022-10-15T04:30:27.704Z,964.58
2022-10-15T04:31:27.976Z,964.57
2022-10-15T04:32:28.235Z,964.57
2022-10-15T04:33:28.505Z,964.58
2022-10-15T04:34:28.749Z,964.61
2022-10-15T04:35:28.985Z,964.59
2022-10-15T04:36:29.225Z,964.65
2022-10-15T04:37:29.480Z,964.62
2022-10-15T04:38:29.714Z,964.62
2022-10-15T04:39:29.956Z,964.60
2022-10-15T04:40:30.195Z,964.66
2022-10-15T04:41:30.436Z,964.62
2022-10-15T04:42:30.676Z,964.62
2022-10-15T04:43:30.927Z,964.63
2022-10-15T04:44:31.168Z,964.58
2022-10-15T04:45:31.410Z,964.61
2022-10-15T04:46:31.649Z,964.63
2022-10-15T04:47:31.899Z,964.63
2022-10-15T04:48:32.139Z,964.60
2022-10-15T04:49:32.379Z,964.60
2022-10-15T04:50:32.628Z,964.57
2022-10-15T04:51:32.871Z,964.54
2022-10-15T04:52:33.111Z,964.62
2022-10-15T04:53:33.370Z,964.59
2022-10-15T04:54:33.609Z,964.58
2022-10-15T04:55:33.862Z,964.55
2022-10-15T04:56:34.095Z,964.60
2022-10-15T04:57:34.342Z,964.63
2022-10-15T04:58:34.622Z,964.67
2022-10-15T04:59:34.872Z,964.63
2022-10-15T05:00:35.113Z,964.62
2022-10-15T05:01:35.361Z,964.58
2022-10-15T05:02:35.672Z,964.63
2022-10-15T05:03:38.437Z,964.63
2022-10-15T05:04:37.154Z,964.51
2022-10-15T05:05:36.465Z,964.50
2022-10-15T05:06:36.695Z,964.50
2022-10-15T05:07:36.946Z,964.50
2022-10-15T05:08:37.196Z,964.50
2022-10-15T05:09:37.477Z,964.53
2022-10-15T05:10:37.721Z,964.57
2022-10-15T05:11:37.979Z,964.60
2022-10-15T05:12:38.285Z,964.62
2022-10-15T05:13:38.555Z,964.56
2022-10-15T05:14:38.817Z,964.55
2022-10-15T05:15:39.076Z,964.53
2022-10-15T05:16:39.365Z,964.53
2022-10-15T05:17:39.628Z,964.56
2022-10-15T05:18:39.878Z,964.65
2022-10-15T05:19:40.139Z,964.68
2022-10-15T05:20:40.389Z,964.68
2022-10-15T05:21:40.681Z,964.63
2022-10-15T05:22:40.940Z,964.60
2022-10-15T05:23:41.199Z,964.57
2022-10-15T05:24:41.467Z,964.57
2022-10-15T05:25:41.780Z,964.55
2022-10-15T05:26:42.000Z,964.61
2022-10-15T05:27:42.260Z,964.58
2022-10-15T05:28:42.524Z,964.56
2022-10-15T05:29:42.791Z,964.53
2022-10-15T05:30:43.030Z,964.61
2022-10-15T05:31:43.274Z,964.63
2022-10-15T05:32:43.523Z,964.63
2022-10-15T05:33:43.783Z,964.64
2022-10-15T05:34:44.044Z,964.69
2022-10-15T05:35:44.327Z,964.73
2022-10-15T05:36:44.584Z,964.74
2022-10-15T05:37:44.834Z,964.69
2022-10-15T05:38:45.075Z,964.69
2022-10-15T05:39:45.316Z,964.62
2022-10-15T05:40:45.555Z,964.65
2022-10-15T05:41:45.795Z,964.70
2022-10-15T05:42:46.055Z,964.63
2022-10-15T05:43:46.314Z,964.71
2022-10-15T05:44:46.562Z,964.72
2022-10-15T05:45:46.796Z,964.73
2022-10-15T05:46:47.034Z,964.73
2022-10-15T05:47:47.277Z,964.76
2022-10-15T05:48:47.521Z,964.76
2022-10-15T05:49:47.761Z,964.79
2022-10-15T05:50:47.998Z,964.83
2022-10-15T05:51:48.277Z,964.82
2022-10-15T05:52:48.531Z,964.81
2022-10-15T05:53:48.769Z,964.76
2022-10-15T05:54:49.009Z,964.84
2022-10-15T05:55:49.249Z,964.79
2022-10-15T05:56:49.489Z,964.73
2022-10-15T05:57:49.740Z,964.71
2022-10-15T05:58:49.993Z,964.68
2022-10-15T05:59:50.280Z,964.66
2022-10-15T06:00:50.522Z,964.64
2022-10-15T06:01:50.791Z,964.71
2022-10-15T06:02:51.133Z,964.69
2022-10-15T06:03:51.239Z,964.64
2022-10-15T06:04:51.485Z,964.68
2022-10-15T06:05:51.722Z,964.70
2022-10-15T06:06:51.971Z,964.77
2022-10-15T06:07:52.213Z,964.77
2022-10-15T06:08:52.454Z,964.73
2022-10-15T06:09:52.704Z,964.73
2022-10-15T06:10:52.952Z,964.75
2022-10-15T06:11:53.196Z,964.76
2022-10-15T06:12:53.454Z,964.72
2022-10-15T06:13:53.698Z,964.73
2022-10-15T06:14:53.945Z,964.72
2022-10-15T06:15:54.196Z,964.65
2022-10-15T06:16:54.447Z,964.65
2022-10-15T06:17:54.696Z,964.69
2022-10-15T06:18:54.938Z,964.75
2022-10-15T06:19:55.188Z,964.79
2022-10-15T06:20:55.438Z,964.74
2022-10-15T06:21:55.678Z,964.80
2022-10-15T06:22:55.927Z,964.85
2022-10-15T06:23:56.168Z,964.83
2022-10-15T06:24:56.409Z,964.82
2022-10-15T06:25:56.659Z,964.79
2022-10-15T06:26:56.919Z,964.81
2022-10-15T06:27:57.160Z,964.81
2022-10-15T06:28:57.434Z,964.80
2022-10-15T06:29:57.650Z,964.83
2022-10-15T06:30:57.890Z,964.89
2022-10-15T06:31:58.131Z,964.86
2022-10-15T06:32:58.402Z,964.85
2022-10-15T06:33:58.633Z,964.94
2022-10-15T06:34:58.872Z,964.95
2022-10-15T06:35:59.112Z,964.95
2022-10-15T06:36:59.362Z,964.93
2022-10-15T06:38:02.208Z,965.01
2022-10-15T06:38:59.844Z,964.97
2022-10-15T06:40:00.137Z,965.08
2022-10-15T06:41:00.384Z,965.09
2022-10-15T06:42:00.624Z,965.05
2022-10-15T06:43:00.873Z,965.03
2022-10-15T06:44:01.121Z,965.11
2022-10-15T06:45:01.365Z,965.14
2022-10-15T06:46:01.614Z,965.17
2022-10-15T06:47:01.876Z,965.19
2022-10-15T06:48:02.134Z,965.23
2022-10-15T06:49:02.408Z,965.26
2022-10-15T06:50:02.666Z,965.28
2022-10-15T06:51:02.959Z,965.28
2022-10-15T06:52:03.831Z,965.30
2022-10-15T06:53:03.470Z,965.28
2022-10-15T06:54:03.728Z,965.27
2022-10-15T06:55:03.985Z,965.36
2022-10-15T06:56:04.238Z,965.29
2022-10-15T06:57:04.499Z,965.33
2022-10-15T06:58:04.758Z,965.35
2022-10-15T06:59:05.028Z,965.30
2022-10-15T07:00:05.279Z,965.40
2022-10-15T07:01:05.550Z,965.39
2022-10-15T07:02:05.809Z,965.40
2022-10-15T07:03:06.087Z,965.44
2022-10-15T07:04:06.351Z,965.40
2022-10-15T07:05:06.630Z,965.42
2022-10-15T07:06:06.886Z,965.50
2022-10-15T07:07:07.142Z,965.51
2022-10-15T07:08:07.401Z,965.49
2022-10-15T07:09:07.662Z,965.46
2022-10-15T07:10:07.949Z,965.45
2022-10-15T07:11:08.193Z,965.49
2022-10-15T07:12:08.453Z,965.49
2022-10-15T07:13:08.723Z,965.48
2022-10-15T07:14:08.983Z,965.49
2022-10-15T07:15:09.243Z,965.50
2022-10-15T07:16:09.496Z,965.54
2022-10-15T07:17:09.755Z,965.54
2022-10-15T07:18:10.026Z,965.61
2022-10-15T07:19:10.279Z,965.66
2022-10-15T07:20:10.535Z,965.68
2022-10-15T07:22:11.116Z,965.74
2022-10-15T07:23:11.378Z,965.76
2022-10-15T07:24:11.637Z,965.73
2022-10-15T07:25:11.896Z,965.73
2022-10-15T07:26:12.148Z,965.67
2022-10-15T07:27:19.642Z,965.71
2022-10-15T07:28:13.649Z,965.74
2022-10-15T07:29:12.986Z,965.79
2022-10-15T07:30:13.247Z,965.77
2022-10-15T07:31:13.518Z,965.77
2022-10-15T07:32:13.790Z,965.67
2022-10-15T07:33:14.070Z,965.72
2022-10-15T07:34:14.369Z,965.76
2022-10-15T07:35:14.621Z,965.72
2022-10-15T07:36:14.892Z,965.77
2022-10-15T07:37:15.151Z,965.77
2022-10-15T07:38:15.441Z,965.75
2022-10-15T07:39:15.712Z,965.76
2022-10-15T07:40:16.005Z,965.78
2022-10-15T07:41:16.272Z,965.82
2022-10-15T07:42:16.553Z,965.81
2022-10-15T07:43:16.813Z,965.86
2022-10-15T07:44:17.091Z,965.89
2022-10-15T07:45:17.351Z,965.94
2022-10-15T07:46:17.603Z,965.93
2022-10-15T07:47:17.867Z,965.94
2022-10-15T07:48:18.134Z,965.95
2022-10-15T07:49:18.384Z,965.94
2022-10-15T07:50:18.644Z,965.96
2022-10-15T07:51:18.909Z,966.02
2022-10-15T07:52:19.175Z,965.99
2022-10-15T07:53:21.969Z,966.02
2022-10-15T07:54:19.693Z,966.04
2022-10-15T07:55:19.950Z,966.08
2022-10-15T07:56:20.209Z,966.11
2022-10-15T07:57:20.465Z,966.11
2022-10-15T07:58:20.727Z,966.13
2022-10-15T07:59:20.998Z,966.14
2022-10-15T08:00:21.293Z,966.10
2022-10-15T08:01:21.548Z,966.16
2022-10-15T08:02:22.191Z,966.17
2022-10-15T08:03:22.108Z,966.15
2022-10-15T08:04:22.371Z,966.17
2022-10-15T08:05:22.639Z,966.17
2022-10-15T08:06:22.890Z,966.23
2022-10-15T08:07:23.150Z,966.24
2022-10-15T08:08:23.410Z,966.29
2022-10-15T08:09:23.676Z,966.32
2022-10-15T08:10:23.930Z,966.32
2022-10-15T08:11:24.192Z,966.28
2022-10-15T08:12:24.777Z,966.29
2022-10-15T08:13:24.770Z,966.19
2022-10-15T08:14:25.022Z,966.34
2022-10-15T08:15:25.291Z,966.40
2022-10-15T08:16:25.564Z,966.46
2022-10-15T08:17:25.833Z,966.35
2022-10-15T08:18:26.102Z,966.40
2022-10-15T08:19:26.354Z,966.37
2022-10-15T08:20:26.614Z,966.42
2022-10-15T08:21:26.905Z,966.41
2022-10-15T08:22:27.163Z,966.49
2022-10-15T08:23:27.435Z,966.48
2022-10-15T08:24:27.693Z,966.55
2022-10-15T08:25:27.957Z,966.48
2022-10-15T08:26:28.266Z,966.45
2022-10-15T08:27:28.536Z,966.58
2022-10-15T08:28:28.841Z,966.51
2022-10-15T08:29:29.097Z,966.50
2022-10-15T08:30:29.364Z,966.62
2022-10-15T08:31:29.628Z,966.61
2022-10-15T08:32:29.885Z,966.54
2022-10-15T08:33:30.149Z,966.58
2022-10-15T08:34:30.406Z,966.66
2022-10-15T08:35:30.678Z,966.61
2022-10-15T08:36:30.947Z,966.49
2022-10-15T08:37:31.221Z,966.50
2022-10-15T08:38:31.515Z,966.55
2022-10-15T08:39:31.780Z,966.60
2022-10-15T08:40:32.047Z,966.50
2022-10-15T08:41:32.301Z,966.53
2022-10-15T08:42:32.568Z,966.52
2022-10-15T08:43:32.853Z,966.47
2022-10-15T08:44:33.112Z,966.53
2022-10-15T08:45:33.394Z,966.56
2022-10-15T08:46:33.646Z,966.61
2022-10-15T08:47:33.934Z,966.64
2022-10-15T08:48:34.202Z,966.68
2022-10-15T08:49:34.471Z,966.64
2022-10-15T08:50:34.723Z,966.65
2022-10-15T08:51:34.988Z,966.74
2022-10-15T08:52:35.234Z,966.67
2022-10-15T08:53:35.495Z,966.76
2022-10-15T08:54:35.755Z,966.67
2022-10-15T08:55:36.015Z,966.76
2022-10-15T08:56:36.283Z,966.77
2022-10-15T08:57:36.545Z,966.80
2022-10-15T08:58:39.609Z,966.80
2022-10-15T08:59:37.129Z,966.83
2022-10-15T09:00:37.386Z,966.88
2022-10-15T09:01:37.648Z,966.90
2022-10-15T09:02:37.939Z,966.84
2022-10-15T09:03:38.167Z,966.86
2022-10-15T09:04:38.427Z,966.87
2022-10-15T09:05:38.690Z,966.89
2022-10-15T09:06:39.908Z,966.88
2022-10-15T09:07:39.238Z,966.86
2022-10-15T09:08:39.479Z,966.87
2022-10-15T09:09:39.740Z,966.89
2022-10-15T09:10:40.001Z,966.88
2022-10-15T09:11:40.259Z,967.00
2022-10-15T09:12:40.521Z,966.97
2022-10-15T09:13:41.122Z,966.98
2022-10-15T09:14:41.029Z,967.09
2022-10-15T09:15:41.289Z,967.02
2022-10-15T09:16:41.543Z,967.05
2022-10-15T09:17:41.801Z,967.07
2022-10-15T09:18:42.062Z,967.13
2022-10-15T09:19:42.322Z,967.22
2022-10-15T09:20:42.583Z,967.21
2022-10-15T09:21:42.843Z,967.22
2022-10-15T09:22:43.137Z,967.24
2022-10-15T09:23:43.381Z,967.24
2022-10-15T09:24:43.634Z,967.21
2022-10-15T09:25:43.943Z,967.15
2022-10-15T09:26:44.205Z,967.23
2022-10-15T09:27:44.455Z,967.30
2022-10-15T09:28:44.837Z,967.20
2022-10-15T09:29:44.971Z,967.24
2022-10-15T09:30:45.217Z,967.18
2022-10-15T09:31:45.496Z,967.18
2022-10-15T09:32:47.559Z,967.12
2022-10-15T09:33:46.044Z,967.18
2022-10-15T09:34:46.298Z,967.20
2022-10-15T09:35:46.566Z,967.17
2022-10-15T09:36:46.820Z,967.17
2022-10-15T09:37:47.078Z,967.22
2022-10-15T09:38:47.346Z,967.24
2022-10-15T09:39:47.600Z,967.22
2022-10-15T09:40:47.857Z,967.18
2022-10-15T09:41:48.109Z,967.17
2022-10-15T09:42:48.369Z,967.23
2022-10-15T09:43:48.629Z,967.24
2022-10-15T09:44:48.938Z,967.19
2022-10-15T09:45:49.192Z,967.24
2022-10-15T09:46:49.440Z,967.29
2022-10-15T09:47:49.711Z,967.28
2022-10-15T09:48:49.971Z,967.32
2022-10-15T09:49:50.233Z,967.35
2022-10-15T09:50:50.483Z,967.40
2022-10-15T09:51:50.754Z,967.34
2022-10-15T09:52:51.009Z,967.40
2022-10-15T09:53:51.270Z,967.41
2022-10-15T09:54:51.523Z,967.41
2022-10-15T09:55:51.793Z,967.46
2022-10-15T09:56:52.044Z,967.43
2022-10-15T09:57:52.306Z,967.47
2022-10-15T09:58:52.573Z,967.50
2022-10-15T09:59:52.827Z,967.46
2022-10-15T10:00:53.089Z,967.50
2022-10-15T10:01:53.411Z,967.53
2022-10-15T10:02:53.635Z,967.53
2022-10-15T10:03:53.945Z,967.54
2022-10-15T10:04:54.210Z,967.50
2022-10-15T10:05:54.472Z,967.55
2022-10-15T10:06:54.717Z,967.56
2022-10-15T10:07:54.976Z,967.55
2022-10-15T10:08:55.238Z,967.54
2022-10-15T10:09:55.497Z,967.60
2022-10-15T10:10:55.759Z,967.61
2022-10-15T10:11:56.007Z,967.60
2022-10-15T10:12:56.258Z,967.58
2022-10-15T10:13:56.538Z,967.64
2022-10-15T10:14:56.798Z,967.61
2022-10-15T10:15:59.008Z,967.62
2022-10-15T10:16:57.320Z,967.68
2022-10-15T10:17:57.580Z,967.66
2022-10-15T10:18:57.841Z,967.65
2022-10-15T10:19:58.102Z,967.63
2022-10-15T10:20:58.357Z,967.59
2022-10-15T10:21:58.612Z,967.59
2022-10-15T10:22:58.914Z,967.58
2022-10-15T10:23:59.180Z,967.61
2022-10-15T10:24:59.442Z,967.59
2022-10-15T10:25:59.697Z,967.60
2022-10-15T10:26:59.987Z,967.57
2022-10-15T10:28:00.263Z,967.55
2022-10-15T10:29:05.187Z,967.57
2022-10-15T10:30:01.763Z,967.55
2022-10-15T10:31:01.100Z,967.56
2022-10-15T10:32:01.344Z,967.55
2022-10-15T10:33:01.602Z,967.54
2022-10-15T10:34:01.905Z,967.58
2022-10-15T10:35:02.155Z,967.58
2022-10-15T10:36:02.439Z,967.56
2022-10-15T10:37:02.686Z,967.56
2022-10-15T10:38:02.936Z,967.62
2022-10-15T10:39:03.195Z,967.63
2022-10-15T10:40:03.457Z,967.59
2022-10-15T10:41:03.708Z,967.61
2022-10-15T10:42:03.967Z,967.62
2022-10-15T10:43:04.237Z,967.56
2022-10-15T10:44:04.498Z,967.56
2022-10-15T10:45:04.804Z,967.57
2022-10-15T10:46:05.058Z,967.60
2022-10-15T10:47:05.319Z,967.61
2022-10-15T10:48:05.576Z,967.62
2022-10-15T10:49:05.841Z,967.56
2022-10-15T10:50:06.097Z,967.55
2022-10-15T10:51:09.174Z,967.55
2022-10-15T10:52:06.663Z,967.56
2022-10-15T10:53:06.960Z,967.55
2022-10-15T10:54:07.212Z,967.54
2022-10-15T10:55:07.483Z,967.56
2022-10-15T10:56:07.741Z,967.56
2022-10-15T10:57:08.003Z,967.55
2022-10-15T10:58:08.260Z,967.58
2022-10-15T10:59:08.524Z,967.60
2022-10-15T11:00:08.780Z,967.56
2022-10-15T11:01:09.108Z,967.57
2022-10-15T11:02:09.324Z,967.50
2022-10-15T11:03:09.583Z,967.53
2022-10-15T11:04:11.110Z,967.49
2022-10-15T11:05:10.082Z,967.51
2022-10-15T11:06:10.334Z,967.52
2022-10-15T11:07:10.594Z,967.49
2022-10-15T11:08:10.853Z,967.49
2022-10-15T11:09:11.124Z,967.41
2022-10-15T11:10:11.375Z,967.43
2022-10-15T11:11:12.595Z,967.39
2022-10-15T11:12:11.905Z,967.34
2022-10-15T11:13:12.173Z,967.35
2022-10-15T11:14:12.427Z,967.35
2022-10-15T11:15:12.684Z,967.43
2022-10-15T11:16:12.937Z,967.37
2022-10-15T11:17:13.207Z,967.35
2022-10-15T11:18:13.469Z,967.34
2022-10-15T11:19:19.067Z,967.32
2022-10-15T11:21:15.250Z,967.33
2022-10-15T11:22:14.629Z,967.33
2022-10-15T11:23:14.889Z,967.31
2022-10-15T11:24:15.159Z,967.27
2022-10-15T11:25:15.420Z,967.28
2022-10-15T11:26:15.679Z,967.31
2022-10-15T11:27:15.950Z,967.28
2022-10-15T11:28:16.221Z,967.28
2022-10-15T11:29:16.507Z,967.29
2022-10-15T11:30:16.752Z,967.28
2022-10-15T11:31:17.047Z,967.27
2022-10-15T11:32:18.065Z,967.27
2022-10-15T11:33:17.572Z,967.23
2022-10-15T11:34:17.842Z,967.27
2022-10-15T11:35:34.454Z,967.25
2022-10-15T11:36:19.346Z,967.24
2022-10-15T11:37:18.663Z,967.27
2022-10-15T11:38:18.914Z,967.24
2022-10-15T11:39:19.201Z,967.25
2022-10-15T11:40:19.473Z,967.31
2022-10-15T11:41:19.736Z,967.26
2022-10-15T11:42:19.985Z,967.23
2022-10-15T11:43:20.243Z,967.21
2022-10-15T11:44:20.499Z,967.14
2022-10-15T11:45:20.756Z,967.16
2022-10-15T11:46:21.016Z,967.17
2022-10-15T11:47:21.276Z,967.15
2022-10-15T11:48:21.535Z,967.22
2022-10-15T11:49:21.807Z,967.18
2022-10-15T11:50:22.058Z,967.10
2022-10-15T11:51:22.318Z,967.14
2022-10-15T11:52:22.954Z,967.14
2022-10-15T11:53:22.807Z,967.13
2022-10-15T11:54:23.063Z,967.12
2022-10-15T11:55:23.328Z,967.12
2022-10-15T11:56:23.579Z,967.13
2022-10-15T11:57:23.858Z,967.12
2022-10-15T11:58:24.138Z,967.08
2022-10-15T11:59:24.399Z,967.12
2022-10-15T12:00:24.670Z,967.08
2022-10-15T12:01:24.927Z,967.10
2022-10-15T12:02:25.417Z,967.08
2022-10-15T12:03:25.422Z,967.03
2022-10-15T12:04:28.946Z,967.05
2022-10-15T12:05:26.921Z,967.07
2022-10-15T12:06:26.242Z,967.07
2022-10-15T12:07:26.502Z,967.09
2022-10-15T12:08:26.760Z,967.07
2022-10-15T12:09:27.022Z,967.03
2022-10-15T12:10:27.274Z,967.07
2022-10-15T12:11:27.533Z,967.02
2022-10-15T12:12:27.793Z,966.98
2022-10-15T12:13:28.052Z,966.94
2022-10-15T12:14:28.313Z,966.96
2022-10-15T12:15:28.586Z,966.94
2022-10-15T12:16:28.843Z,966.94
2022-10-15T12:17:30.065Z,966.95
2022-10-15T12:18:29.386Z,966.99
2022-10-15T12:19:29.654Z,966.98
2022-10-15T12:20:29.906Z,966.98
2022-10-15T12:21:30.171Z,966.94
2022-10-15T12:22:33.601Z,966.95
2022-10-15T12:23:30.717Z,966.94
2022-10-15T12:24:31.011Z,966.96
2022-10-15T12:25:31.249Z,966.95
2022-10-15T12:26:31.530Z,966.91
2022-10-15T12:27:31.798Z,966.92
2022-10-15T12:28:32.099Z,966.95
2022-10-15T12:29:32.377Z,966.98
2022-10-15T12:30:32.628Z,966.93
2022-10-15T12:31:36.309Z,966.94
2022-10-15T12:32:34.141Z,966.95
2022-10-15T12:33:33.461Z,966.96